Time;durP1;ratioP1;P1;durP2;ratioP2;P2;SDS_P1;SDS_P2;PMS_P1;PMS_P2;Temp;Humidity;BMP_temperature;BMP_pressure;BME280_temperature;BME280_humidity;BME280_pressure;Samples;Min_cycle;Max_cycle;Signal;HPM_P1;HPM_P2
2022/02/10 00:25:57;;;;;;;4.70;1.77;;;3.80;99.90;;;;;;5037747;28;20507;-87
2022/02/10 00:36:23;;;;;;;4.13;1.77;;;3.60;99.90;;;;;;5038518;28;20079;-87
2022/02/10 00:38:58;;;;;;;7.77;2.00;;;3.80;99.90;;;;;;5040212;28;20017;-87
2022/02/10 00:41:24;;;;;;;4.93;2.03;;;3.60;99.90;;;;;;5037265;28;20017;-87
2022/02/10 00:43:49;;;;;;;5.70;2.23;;;3.60;99.90;;;;;;5040625;28;20125;-87
2022/02/10 00:46:15;;;;;;;6.47;2.53;;;3.60;99.90;;;;;;5035647;28;20053;-87
2022/02/10 00:48:41;;;;;;;5.70;1.43;;;3.60;99.90;;;;;;5032279;28;20034;-87
2022/02/10 00:51:07;;;;;;;5.00;1.97;;;3.60;99.90;;;;;;5027373;28;20121;-87
2022/02/10 00:53:37;;;;;;;5.40;1.83;;;3.60;99.90;;;;;;5035341;28;20049;-88
2022/02/10 00:56:05;;;;;;;5.03;1.90;;;3.60;99.90;;;;;;5034748;28;20026;-87
2022/02/10 00:58:32;;;;;;;4.97;2.20;;;3.60;99.90;;;;;;5030887;28;20029;-87
2022/02/10 01:30:19;;;;;;;6.30;2.33;;;3.40;99.90;;;;;;5034317;28;20125;-85
2022/02/10 01:32:48;;;;;;;4.60;1.83;;;3.30;99.90;;;;;;5036972;28;20494;-85
2022/02/10 01:35:19;;;;;;;7.37;2.10;;;3.30;99.90;;;;;;5036497;28;20036;-85
2022/02/10 01:37:45;;;;;;;6.37;1.83;;;3.30;99.90;;;;;;5037783;28;20017;-85
2022/02/10 01:40:20;;;;;;;6.90;2.47;;;3.20;99.90;;;;;;5034834;28;20089;-86
2022/02/10 02:05:00;;;;;;;6.40;2.20;;;3.10;99.90;;;;;;5034328;28;20386;-92
2022/02/10 02:07:31;;;;;;;5.10;2.30;;;3.00;99.90;;;;;;5066713;28;20107;-92
2022/02/10 02:12:54;;;;;;;7.13;2.17;;;3.00;99.90;;;;;;5024943;28;20029;-92
2022/02/10 02:15:22;;;;;;;4.77;1.97;;;3.00;99.90;;;;;;5027982;28;20037;-92
2022/02/10 02:17:50;;;;;;;4.63;2.03;;;2.90;99.90;;;;;;5054514;28;20049;-91
2022/02/10 02:20:32;;;;;;;6.53;2.03;;;2.90;99.90;;;;;;5047795;28;20032;-92
2022/02/10 02:23:00;;;;;;;5.57;2.10;;;2.90;99.90;;;;;;5055274;28;20029;-92
2022/02/10 02:25:26;;;;;;;5.00;2.30;;;2.80;99.90;;;;;;5055106;28;20024;-91
2022/02/10 02:27:58;;;;;;;6.00;2.00;;;2.80;99.90;;;;;;5049436;28;20052;-92
2022/02/10 02:30:43;;;;;;;6.03;2.40;;;2.70;99.90;;;;;;5045222;28;20037;-91
2022/02/10 02:34:01;;;;;;;5.70;2.17;;;2.70;99.90;;;;;;5050025;28;20036;-91
2022/02/10 02:39:48;;;;;;;6.00;2.00;;;2.70;99.90;;;;;;5020770;28;20127;-92
2022/02/10 03:05:05;;;;;;;7.87;2.50;;;2.40;99.90;;;;;;5066451;28;20044;-92
2022/02/10 03:07:46;;;;;;;4.50;1.98;;;2.30;99.90;;;;;;5049606;28;20024;-91
2022/02/10 03:13:31;;;;;;;8.10;2.90;;;2.30;99.90;;;;;;5063267;28;20144;-91
2022/02/10 03:19:17;;;;;;;4.70;2.20;;;2.30;99.90;;;;;;5067206;28;20096;-91
2022/02/10 04:03:24;;;;;;;8.23;1.73;;;2.30;99.90;;;;;;5058408;28;20107;-91
2022/02/10 04:24:02;;;;;;;5.15;1.50;;;2.40;99.90;;;;;;5052443;28;20021;-92
2022/02/10 04:30:04;;;;;;;5.50;1.70;;;2.30;99.90;;;;;;5054389;28;20052;-92
2022/02/10 04:41:58;;;;;;;5.83;1.87;;;2.40;99.90;;;;;;5005831;28;20023;-91
2022/02/10 05:01:45;;;;;;;2.93;1.20;;;2.30;99.90;;;;;;5064550;28;20098;-91
2022/02/10 05:24:40;;;;;;;6.60;1.97;;;2.20;99.90;;;;;;5066196;28;20037;-92
2022/02/10 05:35:57;;;;;;;6.77;1.57;;;2.20;99.90;;;;;;5066814;28;20101;-91
2022/02/10 05:44:53;;;;;;;6.20;1.40;;;2.30;99.90;;;;;;5064019;28;20064;-91
2022/02/10 05:58:29;;;;;;;5.93;1.60;;;2.40;99.90;;;;;;5050380;28;20052;-90
2022/02/10 06:56:16;;;;;;;1.60;0.70;;;3.60;99.90;;;;;;5068258;28;20047;-90
2022/02/10 07:07:34;;;;;;;4.87;1.00;;;3.80;99.90;;;;;;5073502;28;20039;-91
2022/02/10 09:19:52;;;;;;;;;;;;;;;;;;;;;
2022/02/10 10:02:32;;;;;;;2.50;1.07;;;9.10;99.90;;;;;;5060723;28;20059;-87
2022/02/10 10:05:26;;;;;;;2.93;1.03;;;9.30;99.90;;;;;;5044901;28;20059;-88
2022/02/10 10:08:13;;;;;;;3.50;1.20;;;9.40;99.90;;;;;;5062495;28;20084;-88
2022/02/10 10:16:24;;;;;;;3.63;1.10;;;9.70;99.90;;;;;;5057219;28;20079;-88
2022/02/10 10:21:35;;;;;;;3.45;0.93;;;9.90;99.90;;;;;;5044072;28;20021;-88
2022/02/10 10:27:24;;;;;;;4.03;0.80;;;9.90;99.90;;;;;;5049783;28;20028;-88
2022/02/10 10:50:11;;;;;;;3.53;1.02;;;10.10;99.90;;;;;;5057145;28;20115;-85
2022/02/10 10:55:39;;;;;;;5.70;1.45;;;10.30;99.90;;;;;;5062478;28;20023;-90
2022/02/10 10:58:13;;;;;;;7.85;1.13;;;10.50;99.90;;;;;;5041445;28;20051;-89
2022/02/10 13:23:50;;;;;;;4.57;1.60;;;10.60;99.90;;;;;;5000062;28;20029;-86
2022/02/10 14:17:02;;;;;;;6.27;2.00;;;9.20;99.90;;;;;;5014469;28;20033;-91
2022/02/10 14:19:57;;;;;;;6.10;2.30;;;8.90;99.90;;;;;;5034897;28;20033;-90
2022/02/10 14:22:37;;;;;;;5.30;2.00;;;8.80;99.90;;;;;;5031627;28;20068;-90
2022/02/10 14:28:04;;;;;;;5.65;2.50;;;8.60;99.90;;;;;;5034174;28;20441;-90
2022/02/10 14:30:56;;;;;;;6.47;2.22;;;8.50;99.90;;;;;;5049177;28;20029;-90
2022/02/10 14:36:44;;;;;;;7.68;2.33;;;8.50;99.90;;;;;;5027609;28;20095;-90
2022/02/10 14:39:49;;;;;;;6.27;2.17;;;8.40;99.90;;;;;;5030667;28;20037;-89
2022/02/10 15:11:40;;;;;;;7.90;2.00;;;7.90;99.90;;;;;;5022349;28;20605;-92
2022/02/10 15:14:32;;;;;;;5.30;2.03;;;7.70;99.90;;;;;;5024923;28;20046;-90
2022/02/10 15:55:16;;;;;;;3.67;1.60;;;7.50;99.90;;;;;;5032324;28;20079;-91
2022/02/10 16:11:44;;;;;;;3.13;1.10;;;7.30;99.90;;;;;;5020229;28;20128;-89
2022/02/10 16:17:03;;;;;;;3.33;1.23;;;7.20;99.90;;;;;;5033144;28;20407;-90
2022/02/10 16:19:31;;;;;;;3.20;0.90;;;7.20;99.90;;;;;;5032530;28;20411;-89
2022/02/10 16:22:22;;;;;;;5.77;1.07;;;7.30;99.90;;;;;;5034480;28;20048;-89
2022/02/10 16:24:50;;;;;;;4.20;0.90;;;7.30;99.90;;;;;;5019671;28;20022;-89
2022/02/10 16:27:22;;;;;;;2.73;1.07;;;7.30;99.90;;;;;;5027984;28;20064;-89
2022/02/10 16:29:48;;;;;;;2.45;1.00;;;7.30;99.90;;;;;;5024578;28;20037;-89
2022/02/10 16:32:14;;;;;;;4.77;1.33;;;7.20;99.90;;;;;;5033943;28;20038;-89
2022/02/10 16:34:43;;;;;;;3.20;1.20;;;7.30;99.90;;;;;;5017703;28;20460;-89
2022/02/10 16:37:11;;;;;;;3.10;0.87;;;7.20;99.90;;;;;;5043021;28;20028;-88
2022/02/10 16:39:42;;;;;;;2.83;0.93;;;7.20;99.90;;;;;;5036188;28;20021;-88
2022/02/10 16:42:11;;;;;;;2.43;1.00;;;7.20;99.90;;;;;;5023419;28;20029;-89
2022/02/10 16:44:37;;;;;;;2.73;1.23;;;7.10;99.90;;;;;;5025425;28;20054;-89
2022/02/10 16:47:04;;;;;;;2.53;1.10;;;7.20;99.90;;;;;;5029769;28;20158;-88
2022/02/10 16:49:30;;;;;;;3.43;0.93;;;7.20;99.90;;;;;;5030703;28;20109;-89
2022/02/10 16:51:56;;;;;;;2.30;0.93;;;7.20;99.90;;;;;;5028529;28;20117;-88
2022/02/10 16:54:32;;;;;;;3.83;1.00;;;7.10;99.90;;;;;;5024663;28;20029;-89
2022/02/10 17:02:27;;;;;;;3.73;1.43;;;7.10;99.90;;;;;;5024042;28;20104;-88
2022/02/10 17:19:02;;;;;;;2.47;0.97;;;7.00;99.90;;;;;;5025501;28;20025;-89
2022/02/10 17:21:33;;;;;;;2.00;0.70;;;7.00;99.90;;;;;;5024297;28;20440;-89
2022/02/10 17:30:10;;;;;;;2.60;1.13;;;6.90;99.90;;;;;;5014824;28;20026;-89
2022/02/10 17:32:52;;;;;;;3.07;1.13;;;6.90;99.90;;;;;;5021192;28;20053;-89
2022/02/10 17:54:00;;;;;;;1.97;0.90;;;6.90;99.90;;;;;;5033654;28;20499;-86
2022/02/10 17:56:27;;;;;;;1.60;0.80;;;6.90;99.90;;;;;;5041505;28;20053;-87
2022/02/10 17:58:54;;;;;;;4.83;1.10;;;6.90;99.90;;;;;;5037174;28;20039;-87
2022/02/10 18:01:22;;;;;;;4.73;1.30;;;6.90;99.90;;;;;;5035481;28;20522;-86
2022/02/10 18:03:47;;;;;;;3.20;0.80;;;6.90;99.90;;;;;;5024759;28;20513;-86
2022/02/10 18:09:58;;;;;;;1.93;0.70;;;6.80;99.90;;;;;;5033267;28;20525;-86
2022/02/10 18:16:51;;;;;;;3.03;1.07;;;6.70;99.90;;;;;;5054325;28;20063;-86
2022/02/10 18:19:25;;;;;;;2.23;0.90;;;6.70;99.90;;;;;;5029452;28;20042;-87
2022/02/10 18:27:17;;;;;;;2.30;0.83;;;6.70;99.90;;;;;;5023090;28;20029;-87
2022/02/10 18:30:15;;;;;;;2.93;1.00;;;6.60;99.90;;;;;;5019184;28;20025;-86
2022/02/10 18:54:29;;;;;;;2.73;0.63;;;6.60;99.90;;;;;;5025197;28;20103;-86
2022/02/10 19:10:49;;;;;;;3.70;1.10;;;6.40;99.90;;;;;;5023128;28;20032;-86
2022/02/10 19:13:18;;;;;;;2.80;1.00;;;6.40;99.90;;;;;;5029693;28;20124;-86
2022/02/10 19:15:44;;;;;;;2.93;0.90;;;6.40;99.90;;;;;;5026598;28;20403;-86
2022/02/10 19:18:10;;;;;;;2.43;0.80;;;6.40;99.90;;;;;;5021992;28;20026;-86
2022/02/10 19:20:37;;;;;;;3.20;1.17;;;6.40;99.90;;;;;;5025394;28;20022;-87
2022/02/10 19:23:08;;;;;;;2.50;0.77;;;6.30;99.90;;;;;;5030872;28;20056;-86
2022/02/10 19:25:36;;;;;;;3.13;0.90;;;6.40;99.90;;;;;;5045764;28;20068;-86
2022/02/10 19:28:02;;;;;;;2.63;0.87;;;6.40;99.90;;;;;;5044251;28;20484;-86
2022/02/10 19:30:33;;;;;;;2.40;1.00;;;6.40;99.90;;;;;;5028287;28;20037;-86
2022/02/10 19:33:02;;;;;;;2.10;0.93;;;6.40;99.90;;;;;;5029542;28;20459;-87
2022/02/10 19:35:30;;;;;;;3.13;0.90;;;6.40;99.90;;;;;;5019967;28;20084;-87
2022/02/10 19:38:03;;;;;;;2.50;0.97;;;6.40;99.90;;;;;;5021698;28;20646;-86
2022/02/10 19:40:38;;;;;;;3.53;0.90;;;6.40;99.90;;;;;;5019548;28;20022;-87
2022/02/10 19:43:05;;;;;;;2.50;0.93;;;6.40;99.90;;;;;;5034014;28;20087;-87
2022/02/10 19:45:33;;;;;;;4.17;1.10;;;6.40;99.90;;;;;;5020830;28;20741;-86
2022/02/10 19:47:58;;;;;;;3.23;1.00;;;6.40;99.90;;;;;;5030252;28;20121;-87
2022/02/10 19:50:27;;;;;;;2.57;0.83;;;6.30;99.90;;;;;;5017231;28;20404;-87
2022/02/10 19:53:01;;;;;;;2.13;0.77;;;6.30;99.90;;;;;;5036491;28;20033;-87
2022/02/10 19:55:28;;;;;;;2.77;1.20;;;6.30;99.90;;;;;;5030013;28;20033;-86
2022/02/10 19:58:04;;;;;;;2.27;0.90;;;6.30;99.90;;;;;;5022496;28;20017;-87
2022/02/10 20:00:35;;;;;;;2.70;0.97;;;6.30;99.90;;;;;;5032883;28;20021;-87
2022/02/10 20:03:06;;;;;;;2.83;1.00;;;6.30;99.90;;;;;;5026991;28;20030;-86
2022/02/10 20:05:35;;;;;;;1.67;0.67;;;6.20;99.90;;;;;;5016529;28;20026;-87
2022/02/10 20:08:01;;;;;;;2.60;0.90;;;6.20;99.90;;;;;;5028918;28;20026;-87
2022/02/10 20:10:30;;;;;;;3.50;0.87;;;6.20;99.90;;;;;;5023769;28;20483;-87
2022/02/10 20:12:56;;;;;;;2.70;0.87;;;6.20;99.90;;;;;;5021508;28;20156;-85
2022/02/10 20:15:24;;;;;;;2.20;0.67;;;6.20;99.90;;;;;;5014093;28;20084;-86
2022/02/10 20:17:55;;;;;;;2.57;1.13;;;6.20;99.90;;;;;;5027829;28;20116;-87
2022/02/10 20:20:20;;;;;;;2.63;0.93;;;6.20;99.90;;;;;;5014272;28;20018;-87
2022/02/10 20:22:46;;;;;;;3.83;1.57;;;6.20;99.90;;;;;;5019849;28;20022;-86
2022/02/10 20:25:12;;;;;;;2.30;0.90;;;6.30;99.90;;;;;;5013635;28;20029;-86
2022/02/10 20:27:37;;;;;;;2.63;1.20;;;6.10;99.90;;;;;;5018795;28;20489;-85
2022/02/10 20:30:05;;;;;;;3.37;1.17;;;6.20;99.90;;;;;;5027122;28;20064;-87
2022/02/10 20:32:30;;;;;;;2.20;1.07;;;6.10;99.90;;;;;;5017104;28;20036;-86
2022/02/10 20:34:57;;;;;;;2.50;1.10;;;6.10;99.90;;;;;;5061632;23;20026;-86
2022/02/10 20:37:24;;;;;;;3.07;1.10;;;6.10;99.90;;;;;;5027599;28;20033;-86
2022/02/10 20:39:49;;;;;;;1.83;0.77;;;6.10;99.90;;;;;;5035757;28;20010;-86
2022/02/10 20:42:18;;;;;;;2.53;0.87;;;6.10;99.90;;;;;;5014692;28;20044;-88
2022/02/10 20:44:47;;;;;;;5.27;1.20;;;6.10;99.90;;;;;;5016705;28;20022;-88
2022/02/10 20:47:17;;;;;;;3.03;1.20;;;6.10;99.90;;;;;;5009632;28;20036;-88
2022/02/10 20:49:43;;;;;;;2.87;1.10;;;6.10;99.90;;;;;;5012631;28;20151;-86
2022/02/10 20:52:08;;;;;;;3.10;1.20;;;6.10;99.90;;;;;;5013092;28;20045;-86
2022/02/10 20:54:34;;;;;;;2.90;1.20;;;6.10;99.90;;;;;;5018560;28;20029;-86
2022/02/10 20:57:00;;;;;;;3.73;1.57;;;6.10;99.90;;;;;;5003702;28;20049;-87
2022/02/10 20:59:38;;;;;;;2.97;1.27;;;6.00;99.90;;;;;;5017067;28;20048;-86
2022/02/10 21:02:14;;;;;;;4.10;1.23;;;6.10;99.90;;;;;;5014238;28;20029;-86
2022/02/10 21:04:49;;;;;;;3.33;1.20;;;6.00;99.90;;;;;;5007830;28;20041;-86
2022/02/10 21:07:31;;;;;;;2.90;1.33;;;6.00;99.90;;;;;;5018442;28;20029;-86
2022/02/10 21:10:00;;;;;;;3.97;1.55;;;6.00;99.90;;;;;;5017845;28;20033;-86
2022/02/10 21:12:32;;;;;;;2.70;1.10;;;6.00;99.90;;;;;;5040587;28;20391;-86
2022/02/10 21:15:00;;;;;;;3.47;1.42;;;6.00;99.90;;;;;;5021496;28;20030;-86
2022/02/10 21:17:27;;;;;;;4.13;1.37;;;6.00;99.90;;;;;;5017262;28;20022;-87
2022/02/10 21:20:00;;;;;;;3.93;1.30;;;6.00;99.90;;;;;;5031481;28;20021;-86
2022/02/10 21:22:27;;;;;;;3.93;1.50;;;6.00;99.90;;;;;;5020183;28;20049;-87
2022/02/10 21:25:00;;;;;;;3.17;1.37;;;6.00;99.90;;;;;;5035754;28;20064;-86
2022/02/10 21:27:43;;;;;;;3.47;1.10;;;6.00;99.90;;;;;;5024590;28;20026;-87
2022/02/10 21:30:10;;;;;;;3.67;1.40;;;6.00;99.90;;;;;;5025501;28;20026;-87
2022/02/10 21:32:43;;;;;;;4.13;1.60;;;6.00;99.90;;;;;;5044121;28;20022;-87
2022/02/10 21:37:53;;;;;;;3.07;1.10;;;6.00;99.90;;;;;;5039707;28;20060;-87
2022/02/10 21:40:33;;;;;;;;;;;6.00;99.90;;;;;;5021121;28;20026;-87
2022/02/10 22:08:20;;;;;;;6.10;1.93;;;6.00;99.90;;;;;;5026280;28;20072;-89
2022/02/10 22:21:04;;;;;;;4.87;1.73;;;5.90;99.90;;;;;;5044099;28;20044;-89
2022/02/10 22:23:32;;;;;;;4.30;1.73;;;5.80;99.90;;;;;;5028475;28;20028;-88
2022/02/10 22:26:04;;;;;;;4.87;1.70;;;5.80;99.90;;;;;;5048114;28;20037;-88
2022/02/10 22:28:42;;;;;;;5.10;1.77;;;5.80;99.90;;;;;;5027354;28;20025;-88
2022/02/10 22:36:22;;;;;;;3.87;1.33;;;5.80;99.90;;;;;;5029109;28;20036;-88
2022/02/10 22:38:57;;;;;;;5.47;1.90;;;5.80;99.90;;;;;;5028174;28;20049;-89
2022/02/10 22:41:22;;;;;;;3.80;1.43;;;5.90;99.90;;;;;;5044059;28;20028;-89
2022/02/10 22:43:50;;;;;;;4.03;1.60;;;5.90;99.90;;;;;;5026710;28;20120;-89
2022/02/10 22:46:16;;;;;;;3.97;1.30;;;5.80;99.90;;;;;;5035772;28;20021;-88
2022/02/10 22:48:47;;;;;;;4.27;1.43;;;5.80;99.90;;;;;;5031679;28;20042;-88
2022/02/10 22:51:14;;;;;;;5.97;1.50;;;5.90;99.90;;;;;;5039869;28;20025;-88
2022/02/10 22:53:40;;;;;;;4.40;1.63;;;5.80;99.90;;;;;;5057095;28;20036;-89
2022/02/10 22:56:11;;;;;;;4.87;1.60;;;5.80;99.90;;;;;;5029927;28;20041;-88
2022/02/10 22:58:39;;;;;;;4.30;1.50;;;5.80;99.90;;;;;;5018769;28;20021;-88
2022/02/10 23:01:06;;;;;;;4.43;1.87;;;5.80;99.90;;;;;;5025274;28;20022;-88
2022/02/10 23:03:32;;;;;;;3.43;1.43;;;5.80;99.90;;;;;;5025461;28;20036;-88
2022/02/10 23:05:58;;;;;;;4.03;1.70;;;5.90;99.90;;;;;;5024981;28;20026;-89
2022/02/10 23:08:24;;;;;;;5.13;1.20;;;5.80;99.90;;;;;;5042712;28;20616;-89
2022/02/10 23:10:51;;;;;;;4.27;1.40;;;5.80;99.90;;;;;;5025406;28;20087;-89
2022/02/10 23:13:23;;;;;;;4.47;1.70;;;5.80;99.90;;;;;;5041725;28;20049;-89
2022/02/10 23:15:50;;;;;;;6.45;1.33;;;5.90;99.90;;;;;;5042155;28;20037;-89
2022/02/10 23:18:20;;;;;;;3.90;1.50;;;5.90;99.90;;;;;;5041740;28;20025;-88
2022/02/10 23:20:48;;;;;;;3.03;1.17;;;5.90;99.90;;;;;;5024033;28;20085;-89
2022/02/10 23:23:16;;;;;;;3.27;1.17;;;5.90;99.90;;;;;;5025436;28;20021;-88
2022/02/10 23:25:43;;;;;;;5.20;1.77;;;6.00;99.90;;;;;;5024596;28;20029;-89
2022/02/10 23:28:18;;;;;;;3.77;1.47;;;5.90;99.90;;;;;;5025391;28;20056;-88
2022/02/10 23:30:46;;;;;;;5.80;1.40;;;6.00;99.90;;;;;;5042374;28;20030;-88
2022/02/10 23:33:21;;;;;;;4.80;1.80;;;6.00;99.90;;;;;;5024505;28;20029;-88
2022/02/10 23:38:42;;;;;;;5.10;1.50;;;6.00;99.90;;;;;;5040731;28;20033;-89
2022/02/10 23:42:00;;;;;;;5.07;1.63;;;6.10;99.90;;;;;;5014329;28;20029;-89
2022/02/10 23:44:12;;;;;;;4.23;1.40;;;6.10;99.90;;;;;;5029389;28;20117;-89
2022/02/10 23:46:39;;;;;;;4.27;1.93;;;6.10;99.90;;;;;;5017945;28;20029;-89
2022/02/10 23:49:06;;;;;;;7.43;1.70;;;6.10;99.90;;;;;;5033792;28;20502;-89
2022/02/10 23:51:36;;;;;;;4.93;1.60;;;6.20;99.90;;;;;;5037544;28;20048;-88
2022/02/10 23:54:02;;;;;;;5.17;1.70;;;6.10;99.90;;;;;;5009593;28;20484;-88
2022/02/10 23:56:34;;;;;;;3.30;1.50;;;6.00;99.90;;;;;;5015792;28;20049;-88
2022/02/10 23:59:10;;;;;;;3.27;1.47;;;6.20;99.90;;;;;;5015028;28;20029;-88
